Time;durP1;ratioP1;P1;durP2;ratioP2;P2;SDS_P1;SDS_P2;PMS_P1;PMS_P2;Temp;Humidity;BMP_temperature;BMP_pressure;BME280_temperature;BME280_humidity;BME280_pressure;Samples;Min_cycle;Max_cycle;Signal;HPM_P1;HPM_P2
2021/05/22 00:00:37;;;;;;;4.35;2.17;;;;;;;14.63;67.38;99747.56;5075970;28;20048;-75
2021/05/22 00:03:05;;;;;;;5.53;2.42;;;;;;;14.46;68.07;99737.41;5075663;28;20070;-75
2021/05/22 00:05:34;;;;;;;3.97;2.22;;;;;;;14.48;67.77;99740.84;5075711;28;20040;-76
2021/05/22 00:08:02;;;;;;;4.22;2.30;;;;;;;14.39;68.29;99734.38;5075125;28;20546;-77
2021/05/22 00:10:30;;;;;;;3.90;2.40;;;;;;;14.41;68.27;99718.16;5075430;28;20067;-78
2021/05/22 00:12:58;;;;;;;5.82;2.17;;;;;;;14.46;67.77;99726.69;5075381;28;20067;-75
2021/05/22 00:15:26;;;;;;;4.82;2.20;;;;;;;14.44;67.76;99723.25;5075811;28;20098;-78
2021/05/22 00:17:54;;;;;;;5.38;2.10;;;;;;;14.42;67.99;99720.69;5075351;28;20374;-76
2021/05/22 00:20:22;;;;;;;4.38;2.30;;;;;;;14.40;68.15;99724.50;5075463;28;20068;-78
2021/05/22 00:22:50;;;;;;;5.07;2.00;;;;;;;14.33;68.10;99713.44;5073750;28;20481;-77
2021/05/22 00:25:18;;;;;;;4.35;2.03;;;;;;;14.23;68.35;99705.31;5075440;28;20074;-78
2021/05/22 00:27:47;;;;;;;4.47;2.35;;;;;;;14.30;68.00;99706.50;5075184;28;20060;-77
2021/05/22 00:30:17;;;;;;;3.83;2.33;;;;;;;14.27;67.94;99706.72;5075237;28;20532;-77
2021/05/22 00:32:45;;;;;;;4.45;2.50;;;;;;;14.24;68.29;99717.72;5075049;28;20047;-77
2021/05/22 00:35:14;;;;;;;5.03;2.40;;;;;;;14.19;68.64;99725.31;5074128;28;20045;-78
2021/05/22 00:37:44;;;;;;;3.95;2.30;;;;;;;14.19;68.20;99703.88;5074661;28;20044;-76
2021/05/22 00:40:14;;;;;;;4.22;2.33;;;;;;;14.21;68.60;99712.63;5075080;28;20065;-77
2021/05/22 00:42:43;;;;;;;4.72;2.30;;;;;;;13.84;68.29;99649.63;5075043;28;20052;-77
2021/05/22 00:45:14;;;;;;;4.07;2.28;;;;;;;14.06;68.82;99692.44;5074905;28;20477;-78
2021/05/22 00:47:44;;;;;;;6.15;2.72;;;;;;;14.07;69.13;99694.13;5073950;28;20052;-77
2021/05/22 00:50:17;;;;;;;4.53;2.33;;;;;;;14.09;68.93;99702.94;5074639;28;20044;-77
2021/05/22 00:52:45;;;;;;;3.97;2.20;;;;;;;14.18;68.27;99699.44;5074742;28;20040;-79
2021/05/22 00:55:15;;;;;;;4.65;2.03;;;;;;;14.15;68.69;99697.03;5074980;28;20055;-78
2021/05/22 00:57:44;;;;;;;6.28;2.35;;;;;;;14.13;69.11;99693.63;5074695;28;20040;-77
2021/05/22 01:00:15;;;;;;;6.60;2.80;;;;;;;14.04;69.59;99702.44;5074799;28;20047;-76
2021/05/22 01:02:44;;;;;;;4.13;2.40;;;;;;;13.98;69.67;99695.75;5074435;28;20044;-78
2021/05/22 01:05:13;;;;;;;4.60;2.50;;;;;;;13.97;69.81;99690.53;5074636;28;20082;-77
2021/05/22 01:07:44;;;;;;;6.93;2.65;;;;;;;13.95;70.46;99689.81;5074427;28;20489;-78
2021/05/22 01:10:13;;;;;;;5.03;2.75;;;;;;;13.90;70.50;99681.31;5073161;28;20102;-75
2021/05/22 01:12:47;;;;;;;4.47;2.60;;;;;;;13.89;70.48;99683.09;5074213;28;20497;-74
2021/05/22 01:15:19;;;;;;;4.20;2.50;;;;;;;13.90;70.37;99686.69;5074327;28;20367;-75
2021/05/22 01:17:49;;;;;;;4.40;2.33;;;;;;;13.83;70.62;99682.78;5074101;28;20139;-76
2021/05/22 01:20:27;;;;;;;4.47;2.63;;;;;;;13.83;70.52;99680.97;5074266;28;20099;-76
2021/05/22 01:22:59;;;;;;;6.60;2.35;;;;;;;13.78;70.73;99677.78;5073952;28;20493;-76
2021/05/22 01:25:32;;;;;;;5.07;2.67;;;;;;;13.78;70.32;99676.94;5073117;28;20059;-77
2021/05/22 01:28:02;;;;;;;4.55;2.40;;;;;;;13.72;71.12;99684.53;5073796;28;20041;-77
2021/05/22 01:30:30;;;;;;;5.15;2.30;;;;;;;13.72;70.54;99689.88;5074374;28;20044;-78
2021/05/22 01:32:58;;;;;;;4.32;2.58;;;;;;;13.80;70.14;99674.97;5072531;28;20068;-77
2021/05/22 01:35:26;;;;;;;4.43;2.67;;;;;;;13.56;70.16;99645.72;5073981;28;20504;-77
2021/05/22 01:37:54;;;;;;;5.63;2.50;;;;;;;13.58;70.40;99649.94;5072479;28;20094;-77
2021/05/22 01:40:22;;;;;;;7.05;2.35;;;;;;;13.68;70.54;99666.97;5073746;28;20489;-76
2021/05/22 01:42:52;;;;;;;5.30;2.22;;;;;;;13.67;70.67;99667.97;5073663;28;20090;-76
2021/05/22 01:45:25;;;;;;;6.18;2.33;;;;;;;13.68;70.20;99664.28;5073755;28;20131;-74
2021/05/22 01:47:54;;;;;;;4.90;2.63;;;;;;;13.64;70.53;99670.91;5073736;28;20397;-77
2021/05/22 01:50:24;;;;;;;3.80;2.30;;;;;;;13.58;70.34;99663.34;5073438;28;20040;-75
2021/05/22 01:52:55;;;;;;;4.93;2.58;;;;;;;13.60;70.57;99665.91;5072138;28;20101;-75
2021/05/22 01:55:25;;;;;;;6.65;2.70;;;;;;;13.59;70.33;99674.91;5072929;28;20047;-76
2021/05/22 01:57:55;;;;;;;4.68;2.45;;;;;;;13.58;70.60;99676.75;5073161;28;20039;-76
2021/05/22 02:00:23;;;;;;;5.05;2.58;;;;;;;13.41;70.88;99653.16;5073463;28;20033;-76
2021/05/22 02:02:59;;;;;;;4.75;2.97;;;;;;;13.53;70.58;99657.53;5073351;28;20040;-75
2021/05/22 02:05:30;;;;;;;5.28;2.60;;;;;;;13.42;71.03;99658.41;5073549;28;20452;-76
2021/05/22 02:07:58;;;;;;;3.60;2.47;;;;;;;13.43;71.44;99667.31;5073037;28;20045;-75
2021/05/22 02:10:29;;;;;;;4.22;2.40;;;;;;;13.35;71.81;99669.75;5073368;28;20149;-76
2021/05/22 02:13:00;;;;;;;4.93;2.67;;;;;;;13.28;71.96;99669.38;5072969;28;20090;-74
2021/05/22 02:15:29;;;;;;;5.32;2.65;;;;;;;13.13;72.18;99650.03;5073148;28;20040;-73
2021/05/22 02:17:58;;;;;;;5.22;2.85;;;;;;;13.25;71.98;99676.81;5072985;28;20048;-76
2021/05/22 02:20:27;;;;;;;7.28;3.08;;;;;;;13.24;72.81;99678.66;5073099;28;20082;-76
2021/05/22 02:22:57;;;;;;;6.93;3.20;;;;;;;13.22;72.86;99671.69;5072919;28;20045;-76
2021/05/22 02:25:26;;;;;;;5.60;3.35;;;;;;;13.23;72.44;99681.44;5073465;28;20051;-75
2021/05/22 02:27:55;;;;;;;6.30;2.90;;;;;;;13.22;72.67;99677.03;5072091;28;20497;-76
2021/05/22 02:30:25;;;;;;;4.95;2.80;;;;;;;13.18;72.98;99679.09;5073451;28;20048;-76
2021/05/22 02:32:55;;;;;;;6.25;3.10;;;;;;;13.08;73.56;99673.63;5072921;28;20505;-75
2021/05/22 02:35:27;;;;;;;6.75;2.78;;;;;;;13.05;73.90;99662.31;5073199;28;20398;-75
2021/05/22 02:37:58;;;;;;;5.78;3.15;;;;;;;13.01;74.51;99667.03;5072834;28;20389;-77
2021/05/22 02:40:29;;;;;;;6.88;2.85;;;;;;;13.00;74.00;99676.03;5072690;28;20062;-78
2021/05/22 02:43:00;;;;;;;6.22;2.70;;;;;;;12.92;74.14;99686.50;5072892;28;20047;-77
2021/05/22 02:45:29;;;;;;;7.68;2.80;;;;;;;12.91;74.79;99684.81;5073094;28;20057;-76
2021/05/22 02:48:00;;;;;;;6.45;2.95;;;;;;;12.88;74.59;99683.22;5072626;28;20041;-76
2021/05/22 02:50:29;;;;;;;5.78;3.00;;;;;;;12.83;75.08;99695.25;5072924;28;20068;-77
2021/05/22 02:53:00;;;;;;;7.35;3.58;;;;;;;12.43;74.74;99612.75;5072506;28;20048;-75
2021/05/22 02:55:29;;;;;;;5.65;3.17;;;;;;;12.83;75.02;99687.22;5073349;28;20432;-75
2021/05/22 02:57:59;;;;;;;7.70;3.40;;;;;;;12.84;74.49;99659.53;5071550;28;20056;-75
2021/05/22 03:00:28;;;;;;;7.03;3.38;;;;;;;12.85;74.12;99677.28;5072906;28;20044;-76
2021/05/22 03:02:56;;;;;;;6.07;3.35;;;;;;;12.97;73.55;99676.31;5072297;28;20486;-76
2021/05/22 03:05:24;;;;;;;5.22;3.08;;;;;;;12.88;74.32;99688.59;5072674;28;20058;-76
2021/05/22 03:07:52;;;;;;;5.90;3.20;;;;;;;12.88;74.11;99693.09;5075183;28;20050;-76
2021/05/22 03:10:21;;;;;;;6.93;3.00;;;;;;;12.94;74.11;99683.72;5076749;28;20583;-75
2021/05/22 03:12:48;;;;;;;5.68;3.53;;;;;;;13.00;73.59;99681.41;5075414;28;20056;-76
2021/05/22 03:15:17;;;;;;;5.93;3.47;;;;;;;12.91;74.03;99684.81;5076181;28;20051;-74
2021/05/22 03:17:45;;;;;;;7.30;3.40;;;;;;;12.80;74.39;99663.38;5076442;28;20378;-75
2021/05/22 03:20:14;;;;;;;7.63;3.22;;;;;;;12.92;74.60;99678.47;5076339;28;20044;-74
2021/05/22 03:22:42;;;;;;;5.40;3.45;;;;;;;12.80;74.74;99688.31;5076632;28;20037;-74
2021/05/22 03:25:11;;;;;;;7.10;3.78;;;;;;;12.79;75.00;99694.66;5074912;28;20045;-74
2021/05/22 03:27:39;;;;;;;5.93;3.58;;;;;;;12.74;75.20;99693.28;5076355;28;20147;-75
2021/05/22 03:30:09;;;;;;;9.68;3.50;;;;;;;12.79;75.31;99688.44;5075949;28;20071;-75
2021/05/22 03:32:37;;;;;;;6.65;3.63;;;;;;;12.80;75.30;99679.44;5075116;28;20048;-77
2021/05/22 03:35:09;;;;;;;7.60;3.53;;;;;;;12.85;75.44;99682.63;5075924;28;20044;-76
2021/05/22 03:37:37;;;;;;;8.52;3.72;;;;;;;12.89;74.76;99673.38;5076355;28;20040;-77
2021/05/22 03:40:07;;;;;;;5.18;3.50;;;;;;;12.95;74.88;99677.41;5075859;28;20094;-75
2021/05/22 03:42:35;;;;;;;6.28;3.65;;;;;;;12.97;74.49;99675.44;5076085;28;20044;-74
2021/05/22 03:45:04;;;;;;;6.82;3.63;;;;;;;12.94;74.94;99681.91;5075677;28;20040;-76
2021/05/22 03:47:33;;;;;;;6.40;3.67;;;;;;;12.99;74.67;99682.38;5075847;28;20048;-75
2021/05/22 03:50:03;;;;;;;8.00;3.80;;;;;;;13.01;75.06;99699.16;5075854;28;20098;-76
2021/05/22 03:52:32;;;;;;;5.80;3.47;;;;;;;13.10;74.35;99693.09;5076068;28;20052;-77
2021/05/22 03:55:00;;;;;;;7.13;3.75;;;;;;;13.14;74.29;99694.56;5075517;28;20044;-76
2021/05/22 03:57:28;;;;;;;6.18;3.67;;;;;;;13.19;74.10;99696.88;5076115;28;20036;-76
2021/05/22 03:59:56;;;;;;;7.13;3.50;;;;;;;13.11;73.85;99676.03;5075603;28;20045;-78
2021/05/22 04:02:23;;;;;;;7.45;3.47;;;;;;;13.37;73.45;99697.25;5075605;28;20040;-77
2021/05/22 04:04:53;;;;;;;6.25;3.92;;;;;;;13.59;72.89;99704.41;5075726;28;20123;-78
2021/05/22 04:07:20;;;;;;;7.00;3.75;;;;;;;13.71;72.12;99706.94;5075475;28;20041;-77
2021/05/22 04:09:49;;;;;;;5.72;3.33;;;;;;;13.85;71.78;99710.31;5075499;28;20044;-77
2021/05/22 04:12:17;;;;;;;5.13;3.40;;;;;;;13.98;71.18;99711.00;5075350;28;20098;-77
2021/05/22 04:14:45;;;;;;;7.47;3.58;;;;;;;14.05;70.68;99712.19;5075797;28;20048;-76
2021/05/22 04:17:13;;;;;;;6.88;3.85;;;;;;;14.10;70.65;99715.38;5075431;28;20101;-77
2021/05/22 04:19:40;;;;;;;7.75;3.55;;;;;;;14.26;69.85;99721.13;5074619;28;20044;-76
2021/05/22 04:22:08;;;;;;;6.45;3.72;;;;;;;14.25;70.02;99714.06;5075138;28;20040;-76
2021/05/22 04:24:36;;;;;;;5.30;3.10;;;;;;;14.41;68.77;99715.47;5075192;28;20036;-79
2021/05/22 04:27:05;;;;;;;8.57;3.92;;;;;;;14.45;68.90;99719.63;5074859;28;20045;-77
2021/05/22 04:29:33;;;;;;;6.78;3.67;;;;;;;14.77;67.58;99715.06;5075207;28;20050;-80
2021/05/22 04:32:01;;;;;;;7.55;3.75;;;;;;;14.57;67.67;99689.03;5074878;28;20094;-80
2021/05/22 04:34:29;;;;;;;6.93;3.55;;;;;;;14.36;68.04;99691.69;5075395;28;20132;-82
2021/05/22 04:36:59;;;;;;;8.05;3.67;;;;;;;14.40;68.21;99716.44;5075221;28;20049;-77
2021/05/22 04:39:27;;;;;;;6.55;3.80;;;;;;;14.29;69.14;99720.88;5075259;28;20048;-78
2021/05/22 04:41:55;;;;;;;7.65;3.80;;;;;;;14.16;69.89;99720.19;5075306;28;20053;-77
2021/05/22 04:44:24;;;;;;;6.70;3.25;;;;;;;14.18;69.20;99715.56;5074792;28;20094;-78
2021/05/22 04:46:52;;;;;;;7.88;3.35;;;;;;;14.26;68.21;99723.81;5074831;28;20041;-75
2021/05/22 04:49:20;;;;;;;6.53;3.25;;;;;;;14.23;68.15;99721.41;5074428;28;20098;-74
2021/05/22 04:51:48;;;;;;;6.85;3.53;;;;;;;14.19;68.34;99717.28;5074643;28;20079;-76
2021/05/22 04:54:17;;;;;;;5.03;3.17;;;;;;;14.11;68.35;99714.38;5074765;28;20124;-77
2021/05/22 04:56:45;;;;;;;5.65;3.10;;;;;;;14.09;68.33;99728.88;5074942;28;20048;-80
2021/05/22 04:59:13;;;;;;;6.30;3.33;;;;;;;14.01;68.64;99737.56;5074449;28;20119;-78
2021/05/22 05:01:41;;;;;;;6.60;3.90;;;;;;;13.98;68.86;99738.66;5074845;28;20440;-80
2021/05/22 05:04:10;;;;;;;5.65;3.13;;;;;;;14.02;68.23;99740.13;5074193;28;20066;-78
2021/05/22 05:06:37;;;;;;;6.50;2.92;;;;;;;14.06;68.08;99751.44;5074315;28;20482;-75
2021/05/22 05:09:07;;;;;;;5.68;2.83;;;;;;;14.09;68.31;99753.00;5074364;28;20095;-79
2021/05/22 05:11:35;;;;;;;4.95;3.28;;;;;;;14.11;68.48;99759.13;5074528;28;20049;-76
2021/05/22 05:14:03;;;;;;;6.43;3.05;;;;;;;14.08;68.39;99754.00;5074146;28;20067;-76
2021/05/22 05:16:31;;;;;;;5.47;3.10;;;;;;;14.04;68.78;99764.97;5074343;28;20075;-77
2021/05/22 05:19:00;;;;;;;4.97;3.08;;;;;;;14.01;68.66;99759.03;5074088;28;20082;-79
2021/05/22 05:21:27;;;;;;;7.82;3.22;;;;;;;14.04;69.13;99758.75;5073103;28;20071;-73
2021/05/22 05:23:57;;;;;;;7.15;3.28;;;;;;;14.15;68.62;99772.13;5074360;28;20052;-73
2021/05/22 05:26:25;;;;;;;7.20;3.40;;;;;;;14.17;68.50;99754.06;5074092;28;20499;-73
2021/05/22 05:28:53;;;;;;;4.97;3.13;;;;;;;14.16;68.81;99764.94;5074102;28;20041;-74
2021/05/22 05:31:21;;;;;;;5.20;3.00;;;;;;;14.21;68.41;99765.44;5072700;28;20444;-73
2021/05/22 05:33:51;;;;;;;6.50;3.05;;;;;;;14.32;67.95;99763.53;5074086;28;20073;-74
2021/05/22 05:36:20;;;;;;;8.05;3.33;;;;;;;14.33;68.38;99754.53;5073666;28;20102;-76
2021/05/22 05:38:48;;;;;;;5.88;3.35;;;;;;;14.35;68.91;99751.69;5073823;28;20060;-76
2021/05/22 05:41:16;;;;;;;6.22;3.33;;;;;;;14.31;69.16;99756.47;5073259;28;20079;-76
2021/05/22 05:43:43;;;;;;;8.10;3.45;;;;;;;14.24;69.15;99749.91;5073728;28;20040;-77
2021/05/22 05:46:12;;;;;;;6.65;3.60;;;;;;;14.20;69.35;99753.00;5073255;28;20075;-76
2021/05/22 05:48:40;;;;;;;4.93;2.80;;;;;;;14.18;69.40;99753.09;5073538;28;20053;-75
2021/05/22 05:51:08;;;;;;;7.32;3.05;;;;;;;14.29;68.40;99752.22;5073449;28;20036;-74
2021/05/22 05:53:36;;;;;;;6.22;3.30;;;;;;;14.25;68.58;99754.31;5073569;28;20082;-74
2021/05/22 05:56:04;;;;;;;7.28;3.38;;;;;;;14.22;68.92;99757.25;5073378;28;20040;-74
2021/05/22 05:58:33;;;;;;;5.43;2.92;;;;;;;14.24;68.35;99762.47;5073161;28;20047;-74
2021/05/22 06:01:03;;;;;;;7.03;3.20;;;;;;;14.20;68.15;99748.47;5073550;28;20086;-75
2021/05/22 06:03:32;;;;;;;6.75;3.42;;;;;;;14.28;68.36;99766.59;5073121;28;20047;-74
2021/05/22 06:06:00;;;;;;;7.30;3.20;;;;;;;14.16;70.01;99778.34;5073285;28;20036;-76
2021/05/22 06:08:28;;;;;;;7.45;3.20;;;;;;;14.11;71.75;99781.44;5072833;28;20460;-77
2021/05/22 06:10:58;;;;;;;7.65;3.90;;;;;;;14.10;72.81;99790.47;5073066;28;20052;-78
2021/05/22 06:13:27;;;;;;;7.78;3.65;;;;;;;14.03;74.09;99767.78;5073053;28;20075;-77
2021/05/22 06:16:02;;;;;;;7.93;3.70;;;;;;;14.01;75.11;99789.38;5072954;28;20040;-77
2021/05/22 06:18:31;;;;;;;10.35;3.88;;;;;;;13.99;75.39;99779.72;5072719;28;20545;-77
2021/05/22 06:20:59;;;;;;;7.13;3.80;;;;;;;13.97;75.06;99795.94;5073049;28;20049;-78
2021/05/22 06:23:27;;;;;;;7.85;4.00;;;;;;;13.98;76.34;99804.84;5072748;28;20040;-77
2021/05/22 06:25:57;;;;;;;8.52;4.07;;;;;;;13.90;76.41;99805.50;5073296;28;20055;-75
2021/05/22 06:28:28;;;;;;;8.77;4.28;;;;;;;13.98;76.50;99802.16;5073027;28;20078;-77
2021/05/22 06:30:56;;;;;;;6.10;3.65;;;;;;;13.98;75.22;99805.69;5073290;28;20129;-78
2021/05/22 06:33:24;;;;;;;6.03;3.30;;;;;;;14.07;76.39;99806.78;5071364;28;20136;-76
2021/05/22 06:35:52;;;;;;;5.47;3.20;;;;;;;14.14;75.38;99812.50;5073169;28;20114;-76
2021/05/22 06:38:20;;;;;;;8.20;3.55;;;;;;;14.23;74.89;99819.78;5072611;28;20079;-77
2021/05/22 06:40:48;;;;;;;6.45;3.67;;;;;;;14.22;75.29;99821.63;5073019;28;20053;-74
2021/05/22 06:43:18;;;;;;;6.60;3.53;;;;;;;14.18;75.13;99820.16;5072439;28;20097;-71
2021/05/22 06:45:56;;;;;;;5.50;3.42;;;;;;;14.34;74.78;99814.38;5072839;28;20049;-71
2021/05/22 06:48:25;;;;;;;7.47;3.72;;;;;;;14.30;74.58;99804.91;5072464;28;20041;-71
2021/05/22 06:50:54;;;;;;;6.50;3.45;;;;;;;14.27;74.71;99805.97;5072803;28;20037;-74
2021/05/22 06:53:22;;;;;;;6.53;3.30;;;;;;;14.42;74.58;99817.28;5072463;28;20497;-75
2021/05/22 06:55:52;;;;;;;6.43;3.28;;;;;;;14.60;73.33;99809.59;5072950;28;20036;-71
2021/05/22 06:58:21;;;;;;;6.15;3.50;;;;;;;14.78;73.02;99797.28;5072676;28;20098;-77
2021/05/22 07:00:49;;;;;;;6.20;3.30;;;;;;;15.16;71.67;99804.75;5072487;28;20055;-73
2021/05/22 07:03:17;;;;;;;5.10;3.30;;;;;;;15.46;71.46;99809.31;5072229;28;20041;-72
2021/05/22 07:05:49;;;;;;;6.15;3.05;;;;;;;16.17;69.19;99809.28;5072821;28;20094;-71
2021/05/22 07:08:17;;;;;;;6.63;3.25;;;;;;;16.29;68.53;99810.84;5072377;28;20041;-75
2021/05/22 07:10:45;;;;;;;6.63;3.13;;;;;;;16.13;68.02;99817.78;5072637;28;20037;-72
2021/05/22 07:13:13;;;;;;;7.32;2.97;;;;;;;15.94;67.65;99816.75;5072386;28;20066;-76
2021/05/22 07:15:42;;;;;;;9.30;3.28;;;;;;;15.75;67.95;99814.00;5072483;28;20119;-72
2021/05/22 07:18:10;;;;;;;6.50;3.05;;;;;;;15.61;68.35;99820.56;5072305;28;20416;-72
2021/05/22 07:20:38;;;;;;;6.60;3.25;;;;;;;15.59;69.13;99813.59;5072317;28;20478;-72
2021/05/22 07:23:06;;;;;;;6.72;3.25;;;;;;;15.74;67.80;99804.22;5072856;28;20064;-74
2021/05/22 07:25:34;;;;;;;6.82;3.13;;;;;;;15.65;68.21;99789.75;5072312;28;20465;-74
2021/05/22 07:28:02;;;;;;;5.10;2.92;;;;;;;15.55;68.36;99812.19;5072192;28;20040;-74
2021/05/22 07:30:30;;;;;;;5.45;3.13;;;;;;;15.50;68.48;99811.72;5072265;28;20048;-75
2021/05/22 07:33:00;;;;;;;6.47;3.28;;;;;;;15.66;69.33;99794.16;5072576;28;20102;-74
2021/05/22 07:35:28;;;;;;;6.80;3.20;;;;;;;15.81;68.51;99801.81;5072148;28;20068;-83
2021/05/22 07:37:56;;;;;;;5.90;2.97;;;;;;;16.08;68.01;99796.66;5072119;28;20127;-79
2021/05/22 07:40:24;;;;;;;6.00;3.30;;;;;;;16.12;66.98;99800.78;5071753;28;20055;-75
2021/05/22 07:42:52;;;;;;;6.47;2.78;;;;;;;16.20;66.60;99795.53;5071993;28;20075;-75
2021/05/22 07:45:20;;;;;;;6.50;3.13;;;;;;;16.17;65.61;99809.28;5074011;28;20036;-73
2021/05/22 07:47:50;;;;;;;6.25;2.67;;;;;;;16.14;67.10;99809.56;5071912;28;20044;-72
2021/05/22 07:50:19;;;;;;;6.70;2.83;;;;;;;16.06;66.01;99811.25;5071533;28;20064;-74
2021/05/22 07:52:48;;;;;;;6.15;2.78;;;;;;;16.14;66.62;99814.97;5072253;28;20049;-74
2021/05/22 07:55:15;;;;;;;10.25;2.60;;;;;;;16.13;65.46;99823.16;5074875;28;20052;-74
2021/05/22 07:57:43;;;;;;;3.97;2.35;;;;;;;16.06;66.16;99824.69;5075872;28;20041;-77
2021/05/22 08:00:12;;;;;;;6.18;2.60;;;;;;;16.15;66.00;99807.72;5075349;28;20044;-79
2021/05/22 08:02:43;;;;;;;5.93;2.72;;;;;;;16.39;64.31;99816.25;5074100;28;20056;-77
2021/05/22 08:05:13;;;;;;;7.30;2.78;;;;;;;16.60;64.52;99816.16;5074708;28;20048;-81
2021/05/22 08:07:45;;;;;;;4.75;2.17;;;;;;;16.59;63.81;99815.28;5075458;28;20044;-80
2021/05/22 08:10:16;;;;;;;4.93;2.60;;;;;;;16.77;63.39;99811.91;5075391;28;20044;-81
2021/05/22 08:12:44;;;;;;;6.60;2.50;;;;;;;16.76;63.63;99807.53;5075047;28;20045;-76
2021/05/22 08:15:12;;;;;;;4.22;2.10;;;;;;;16.70;62.58;99817.03;5074793;28;20045;-75
2021/05/22 08:17:40;;;;;;;9.40;2.53;;;;;;;16.73;62.48;99821.28;5074794;28;20385;-78
2021/05/22 08:20:10;;;;;;;5.95;2.25;;;;;;;16.69;62.61;99825.22;5074521;28;20435;-76
2021/05/22 08:22:39;;;;;;;5.55;2.30;;;;;;;16.54;63.70;99811.31;5074402;28;20086;-74
2021/05/22 08:25:09;;;;;;;4.78;2.30;;;;;;;16.51;63.08;99822.38;5074917;28;20056;-75
2021/05/22 08:27:39;;;;;;;6.07;2.60;;;;;;;16.63;63.39;99832.00;5072861;28;20435;-74
2021/05/22 08:30:09;;;;;;;4.95;2.78;;;;;;;16.63;62.18;99831.16;5074481;28;20036;-78
2021/05/22 08:32:41;;;;;;;5.68;2.30;;;;;;;16.48;62.06;99823.50;5074904;28;20436;-75
2021/05/22 08:35:10;;;;;;;5.55;2.20;;;;;;;16.43;62.19;99824.91;5074502;28;20071;-74
2021/05/22 08:37:38;;;;;;;5.55;2.50;;;;;;;16.43;61.48;99839.22;5075153;28;20045;-74
2021/05/22 08:40:08;;;;;;;3.80;1.95;;;;;;;16.47;61.49;99837.94;5074043;28;20040;-75
2021/05/22 08:42:37;;;;;;;4.20;2.35;;;;;;;16.51;61.96;99817.84;5074464;28;20123;-75
2021/05/22 08:45:08;;;;;;;5.25;2.45;;;;;;;16.66;61.47;99831.72;5074096;28;20033;-75
2021/05/22 08:47:36;;;;;;;4.68;2.30;;;;;;;16.87;60.79;99834.31;5074341;28;20717;-75
2021/05/22 08:50:06;;;;;;;6.22;2.33;;;;;;;16.95;60.09;99837.13;5074553;28;20048;-76
2021/05/22 08:52:35;;;;;;;6.43;2.20;;;;;;;16.83;61.40;99847.22;5074940;28;20076;-78
2021/05/22 08:55:05;;;;;;;9.90;2.47;;;;;;;16.81;59.96;99846.50;5074475;28;20123;-77
2021/05/22 08:57:37;;;;;;;8.27;2.25;;;;;;;16.97;60.11;99837.00;5074283;28;20037;-80
2021/05/22 09:00:09;;;;;;;6.25;2.50;;;;;;;17.17;58.36;99834.13;5074306;28;20064;-75
2021/05/22 09:02:37;;;;;;;6.18;2.00;;;;;;;17.55;57.07;99835.03;5073629;28;20040;-76
2021/05/22 09:05:15;;;;;;;4.95;1.60;;;;;;;17.83;54.23;99827.00;5074047;28;20110;-79
2021/05/22 09:07:47;;;;;;;4.72;1.65;;;;;;;18.18;51.56;99827.13;5074525;28;20048;-76
2021/05/22 09:10:22;;;;;;;5.18;1.58;;;;;;;18.43;50.13;99836.34;5076018;28;20044;-76
2021/05/22 09:12:53;;;;;;;3.95;1.48;;;;;;;18.58;49.04;99828.56;5074089;28;20049;-79
2021/05/22 09:15:22;;;;;;;6.93;1.55;;;;;;;18.58;46.89;99812.34;5074609;28;20507;-78
2021/05/22 09:17:53;;;;;;;4.68;1.55;;;;;;;18.74;47.84;99836.00;5073871;28;20051;-75
2021/05/22 09:20:26;;;;;;;3.00;1.50;;;;;;;18.75;47.55;99841.25;5073912;28;20051;-76
2021/05/22 09:23:03;;;;;;;3.35;1.70;;;;;;;18.79;46.30;99839.06;5072628;28;20048;-75
2021/05/22 09:25:36;;;;;;;3.58;1.50;;;;;;;18.88;46.17;99830.03;5073982;28;20171;-75
2021/05/22 09:28:08;;;;;;;3.70;1.35;;;;;;;19.05;45.42;99831.88;5073872;28;20041;-73
2021/05/22 09:30:41;;;;;;;2.22;1.30;;;;;;;19.22;44.27;99830.16;5073813;28;20067;-74
2021/05/22 09:33:13;;;;;;;5.32;1.30;;;;;;;19.36;46.36;99832.28;5073273;28;20154;-73
2021/05/22 09:35:44;;;;;;;3.17;1.55;;;;;;;19.25;45.23;99831.69;5073388;28;20102;-76
2021/05/22 09:38:11;;;;;;;2.97;1.42;;;;;;;19.13;45.08;99834.66;5073423;28;20170;-73
2021/05/22 09:40:39;;;;;;;3.65;1.52;;;;;;;19.17;44.55;99838.72;5072803;28;20060;-76
2021/05/22 09:43:09;;;;;;;3.30;1.30;;;;;;;19.32;43.87;99838.16;5071997;28;20452;-77
2021/05/22 09:45:39;;;;;;;7.03;1.70;;;;;;;19.13;44.25;99834.66;5073601;28;20046;-70
2021/05/22 09:48:10;;;;;;;2.95;1.30;;;;;;;19.01;44.16;99846.72;5073208;28;20101;-75
2021/05/22 09:50:39;;;;;;;3.08;1.20;;;;;;;18.78;45.69;99846.34;5073846;28;20441;-76
2021/05/22 09:53:28;;;;;;;3.88;1.40;;;;;;;18.64;46.06;99871.16;5073232;28;20102;-76
2021/05/22 09:56:15;;;;;;;4.13;1.60;;;;;;;18.38;47.05;99864.78;5066429;28;20045;-77
2021/05/22 09:58:45;;;;;;;4.82;1.30;;;;;;;18.39;46.30;99850.28;5066819;28;20036;-75
2021/05/22 10:01:14;;;;;;;3.35;1.20;;;;;;;18.22;46.40;99849.25;5071954;28;20067;-82
2021/05/22 10:03:42;;;;;;;4.53;1.40;;;;;;;18.29;46.17;99853.91;5072055;28;20045;-78
2021/05/22 10:06:13;;;;;;;3.25;1.20;;;;;;;18.20;45.55;99862.91;5072073;28;20086;-75
2021/05/22 10:08:42;;;;;;;3.53;1.20;;;;;;;17.88;45.68;99857.94;5069966;28;20437;-75
2021/05/22 10:11:10;;;;;;;4.63;1.38;;;;;;;17.79;46.92;99864.22;5063355;28;20037;-80
2021/05/22 10:13:43;;;;;;;6.20;1.30;;;;;;;17.64;47.70;99869.19;5067081;28;20087;-80
2021/05/22 10:16:11;;;;;;;3.80;1.40;;;;;;;17.38;48.94;99854.69;5071437;28;20383;-77
2021/05/22 10:18:39;;;;;;;2.55;1.25;;;;;;;17.30;49.96;99868.88;5071601;28;20498;-77
2021/05/22 10:21:07;;;;;;;2.83;1.30;;;;;;;17.19;51.67;99866.34;5066652;28;20033;-81
2021/05/22 10:23:36;;;;;;;2.17;1.20;;;;;;;16.96;51.99;99868.47;5060703;28;20392;-81
2021/05/22 10:26:04;;;;;;;3.05;1.30;;;;;;;16.95;52.87;99874.84;5071769;28;20062;-74
2021/05/22 10:28:32;;;;;;;2.38;1.30;;;;;;;16.80;52.85;99870.91;5072171;28;20052;-75
2021/05/22 10:31:01;;;;;;;5.40;1.45;;;;;;;16.80;52.94;99882.53;5055777;28;20123;-75
2021/05/22 10:33:36;;;;;;;2.83;1.17;;;;;;;16.54;54.90;99881.31;5072181;28;20043;-77
2021/05/22 10:36:04;;;;;;;3.63;1.45;;;;;;;16.18;59.70;99878.25;5060144;28;20040;-74
2021/05/22 10:38:39;;;;;;;3.13;1.35;;;;;;;16.01;61.51;99898.56;5068082;28;20063;-74
2021/05/22 10:41:11;;;;;;;3.63;1.80;;;;;;;16.12;62.83;99902.19;5062805;28;20052;-75
2021/05/22 10:43:41;;;;;;;4.18;1.80;;;;;;;15.89;64.34;99909.56;5067528;28;20106;-73
2021/05/22 10:46:13;;;;;;;4.18;1.80;;;;;;;15.72;65.30;99902.97;5071811;28;20116;-78
2021/05/22 10:48:55;;;;;;;4.47;1.60;;;;;;;15.53;66.40;99916.28;5055118;28;20052;-80
2021/05/22 10:51:35;;;;;;;2.55;1.55;;;;;;;15.48;65.37;99902.38;5065230;28;20498;-75
2021/05/22 10:54:10;;;;;;;5.60;1.90;;;;;;;15.66;66.17;99901.69;5064450;28;20106;-75
2021/05/22 10:57:00;;;;;;;5.90;2.03;;;;;;;15.70;66.54;99907.63;5065235;28;20051;-76
2021/05/22 10:59:29;;;;;;;3.25;1.63;;;;;;;15.68;66.07;99901.53;5072002;28;20066;-78
2021/05/22 11:02:00;;;;;;;1.80;1.15;;;;;;;15.38;65.67;99913.94;5071382;28;20609;-76
2021/05/22 11:04:37;;;;;;;4.65;1.50;;;;;;;15.56;66.25;99913.34;5056286;28;20045;-75
2021/05/22 11:07:20;;;;;;;2.22;1.50;;;;;;;15.61;65.81;99913.81;5056404;28;20463;-78
2021/05/22 11:09:55;;;;;;;3.15;1.30;;;;;;;15.53;66.15;99916.28;5071943;28;20040;-73
2021/05/22 11:12:49;;;;;;;4.97;1.38;;;;;;;15.59;66.71;99915.75;5068943;28;20099;-75
2021/05/22 11:15:50;;;;;;;3.38;1.42;;;;;;;15.64;67.26;99929.69;5064634;28;20438;-75
2021/05/22 11:18:22;;;;;;;2.35;1.70;;;;;;;15.79;65.67;99922.97;5066076;28;20041;-79
2021/05/22 11:21:19;;;;;;;5.28;2.00;;;;;;;15.89;66.29;99928.41;5068901;28;20116;-77
2021/05/22 11:24:12;;;;;;;2.90;1.42;;;;;;;16.02;65.16;99929.91;5061835;28;20043;-78
2021/05/22 11:27:07;;;;;;;3.55;1.45;;;;;;;16.02;64.59;99924.53;5065211;28;20052;-80
2021/05/22 11:29:56;;;;;;;5.72;1.60;;;;;;;16.22;63.35;99913.84;5074060;28;20064;-78
2021/05/22 11:32:53;;;;;;;4.07;1.67;;;;;;;16.27;63.19;99927.72;5060245;28;20044;-79
2021/05/22 11:35:46;;;;;;;3.70;1.42;;;;;;;16.42;63.66;99937.13;5060530;28;20060;-78
2021/05/22 11:38:32;;;;;;;2.73;1.40;;;;;;;16.41;63.53;99946.19;5075685;28;20048;-78
2021/05/22 11:41:30;;;;;;;3.08;1.70;;;;;;;15.84;66.19;99941.41;5058770;28;20056;-78
2021/05/22 11:44:07;;;;;;;15.38;1.67;;;;;;;15.50;67.11;99957.72;5072469;28;20056;-79
2021/05/22 11:46:36;;;;;;;3.30;1.10;;;;;;;15.00;67.55;99946.72;5058888;28;20091;-76
2021/05/22 11:49:05;;;;;;;2.45;1.13;;;;;;;14.82;67.80;99957.13;5071033;28;20486;-77